sensor_id;sensor_type;location;lat;lon;timestamp;pressure;altitude;pressure_sealevel;temperature;humidity
34197;BME280;36594;45.192;5.722;2023-04-06T00:02:32;99419.73;;;23.06;32.37
34197;BME280;36594;45.192;5.722;2023-04-06T00:05:20;99425.27;;;23.08;32.34
34197;BME280;36594;45.192;5.722;2023-04-06T00:08:10;99426.05;;;23.06;32.35
34197;BME280;36594;45.192;5.722;2023-04-06T00:10:59;99422.84;;;23.09;32.34
34197;BME280;36594;45.192;5.722;2023-04-06T00:13:48;99417.55;;;23.05;32.39
34197;BME280;36594;45.192;5.722;2023-04-06T00:16:37;99425.20;;;23.06;32.40
34197;BME280;36594;45.192;5.722;2023-04-06T00:19:25;99423.03;;;23.05;32.39
34197;BME280;36594;45.192;5.722;2023-04-06T00:22:13;99423.31;;;23.06;32.41
34197;BME280;36594;45.192;5.722;2023-04-06T00:25:02;99429.63;;;23.07;32.41
34197;BME280;36594;45.192;5.722;2023-04-06T00:27:50;99428.51;;;23.05;32.45
34197;BME280;36594;45.192;5.722;2023-04-06T00:30:39;99429.94;;;23.08;32.42
34197;BME280;36594;45.192;5.722;2023-04-06T00:33:28;99428.26;;;23.07;32.46
34197;BME280;36594;45.192;5.722;2023-04-06T00:36:16;99423.31;;;23.06;32.44
34197;BME280;36594;45.192;5.722;2023-04-06T00:39:05;99423.62;;;23.07;32.46
34197;BME280;36594;45.192;5.722;2023-04-06T00:41:54;99425.52;;;23.07;32.47
34197;BME280;36594;45.192;5.722;2023-04-06T00:44:43;99418.92;;;23.05;32.50
34197;BME280;36594;45.192;5.722;2023-04-06T00:47:33;99423.09;;;23.08;32.48
34197;BME280;36594;45.192;5.722;2023-04-06T00:50:22;99419.51;;;23.07;32.49
34197;BME280;36594;45.192;5.722;2023-04-06T00:53:10;99413.44;;;23.05;32.51
34197;BME280;36594;45.192;5.722;2023-04-06T00:55:58;99416.18;;;23.05;32.56
34197;BME280;36594;45.192;5.722;2023-04-06T00:58:47;99418.61;;;23.04;32.54
34197;BME280;36594;45.192;5.722;2023-04-06T01:01:35;99415.09;;;23.06;32.55
34197;BME280;36594;45.192;5.722;2023-04-06T01:04:26;99410.14;;;23.06;32.56
34197;BME280;36594;45.192;5.722;2023-04-06T01:07:15;99413.19;;;23.07;32.55
34197;BME280;36594;45.192;5.722;2023-04-06T01:10:05;99407.40;;;23.06;32.58
34197;BME280;36594;45.192;5.722;2023-04-06T01:12:54;99406.87;;;23.06;32.57
34197;BME280;36594;45.192;5.722;2023-04-06T01:15:44;99394.54;;;23.06;32.55
34197;BME280;36594;45.192;5.722;2023-04-06T01:18:34;99400.55;;;23.06;32.56
34197;BME280;36594;45.192;5.722;2023-04-06T01:21:30;99398.37;;;23.05;32.61
34197;BME280;36594;45.192;5.722;2023-04-06T01:24:30;99400.27;;;23.05;32.59
34197;BME280;36594;45.192;5.722;2023-04-06T01:27:23;99400.27;;;23.05;32.59
34197;BME280;36594;45.192;5.722;2023-04-06T01:30:14;99393.67;;;23.03;32.61
34197;BME280;36594;45.192;5.722;2023-04-06T01:33:20;99398.06;;;23.04;32.59
34197;BME280;36594;45.192;5.722;2023-04-06T01:36:10;99396.41;;;23.03;32.61
34197;BME280;36594;45.192;5.722;2023-04-06T01:38:59;99400.80;;;23.04;32.60
34197;BME280;36594;45.192;5.722;2023-04-06T01:41:49;99407.12;;;23.05;32.60
34197;BME280;36594;45.192;5.722;2023-04-06T01:44:39;99404.66;;;23.06;32.56
34197;BME280;36594;45.192;5.722;2023-04-06T01:47:29;99406.28;;;23.04;32.59
34197;BME280;36594;45.192;5.722;2023-04-06T01:50:17;99405.22;;;23.05;32.63
34197;BME280;36594;45.192;5.722;2023-04-06T01:53:06;99395.06;;;23.06;32.58
34197;BME280;36594;45.192;5.722;2023-04-06T01:55:57;99394.54;;;23.06;32.58
34197;BME280;36594;45.192;5.722;2023-04-06T01:58:46;99394.79;;;23.05;32.59
34197;BME280;36594;45.192;5.722;2023-04-06T02:01:36;99397.28;;;23.06;32.57
34197;BME280;36594;45.192;5.722;2023-04-06T02:04:25;99399.73;;;23.05;32.48
34197;BME280;36594;45.192;5.722;2023-04-06T02:07:14;99398.65;;;23.06;32.30
34197;BME280;36594;45.192;5.722;2023-04-06T02:10:04;99404.38;;;23.05;32.22
34197;BME280;36594;45.192;5.722;2023-04-06T02:12:55;99410.39;;;23.04;32.21
34197;BME280;36594;45.192;5.722;2023-04-06T02:15:45;99409.61;;;23.06;32.10
34197;BME280;36594;45.192;5.722;2023-04-06T02:18:33;99403.84;;;23.05;32.07
34197;BME280;36594;45.192;5.722;2023-04-06T02:21:21;99407.40;;;23.06;32.08
34197;BME280;36594;45.192;5.722;2023-04-06T02:24:10;99410.98;;;23.06;31.98
34197;BME280;36594;45.192;5.722;2023-04-06T02:26:58;99406.81;;;23.04;32.28
34197;BME280;36594;45.192;5.722;2023-04-06T02:29:47;99402.95;;;23.02;32.32
34197;BME280;36594;45.192;5.722;2023-04-06T02:32:37;99402.95;;;23.02;32.34
34197;BME280;36594;45.192;5.722;2023-04-06T02:35:28;99405.22;;;23.05;32.21
34197;BME280;36594;45.192;5.722;2023-04-06T02:38:18;99405.50;;;23.06;32.06
34197;BME280;36594;45.192;5.722;2023-04-06T02:41:06;99409.33;;;23.05;31.99
34197;BME280;36594;45.192;5.722;2023-04-06T02:43:54;99403.29;;;23.06;31.99
34197;BME280;36594;45.192;5.722;2023-04-06T02:46:44;99395.06;;;23.06;31.91
34197;BME280;36594;45.192;5.722;2023-04-06T02:49:33;99404.13;;;23.06;31.87
34197;BME280;36594;45.192;5.722;2023-04-06T02:52:21;99409.39;;;23.08;31.82
34197;BME280;36594;45.192;5.722;2023-04-06T02:55:10;99403.07;;;23.07;31.84
34197;BME280;36594;45.192;5.722;2023-04-06T02:57:58;99401.70;;;23.07;31.84
34197;BME280;36594;45.192;5.722;2023-04-06T03:00:48;99405.81;;;23.07;31.79
34197;BME280;36594;45.192;5.722;2023-04-06T03:03:37;99410.45;;;23.07;31.74
34197;BME280;36594;45.192;5.722;2023-04-06T03:06:27;99400.02;;;23.06;31.84
34197;BME280;36594;45.192;5.722;2023-04-06T03:09:17;99401.92;;;23.06;31.79
34197;BME280;36594;45.192;5.722;2023-04-06T03:12:06;99404.66;;;23.06;31.82
34197;BME280;36594;45.192;5.722;2023-04-06T03:14:56;99399.73;;;23.05;31.84
34197;BME280;36594;45.192;5.722;2023-04-06T03:17:45;99410.98;;;23.06;31.80
34197;BME280;36594;45.192;5.722;2023-04-06T03:20:35;99407.18;;;23.07;31.73
34197;BME280;36594;45.192;5.722;2023-04-06T03:23:24;99415.09;;;23.06;31.74
34197;BME280;36594;45.192;5.722;2023-04-06T03:26:14;99393.83;;;22.99;31.67
34197;BME280;36594;45.192;5.722;2023-04-06T03:29:03;99410.98;;;23.06;31.80
34197;BME280;36594;45.192;5.722;2023-04-06T03:31:52;99417.30;;;23.07;31.76
34197;BME280;36594;45.192;5.722;2023-04-06T03:34:41;99414.09;;;23.10;31.73
34197;BME280;36594;45.192;5.722;2023-04-06T03:37:30;99414.67;;;23.12;31.68
34197;BME280;36594;45.192;5.722;2023-04-06T03:40:20;99410.82;;;23.10;31.73
34197;BME280;36594;45.192;5.722;2023-04-06T03:43:08;99412.41;;;23.09;31.69
34197;BME280;36594;45.192;5.722;2023-04-06T03:45:57;99409.14;;;23.09;31.71
34197;BME280;36594;45.192;5.722;2023-04-06T03:48:48;99410.51;;;23.09;31.69
34197;BME280;36594;45.192;5.722;2023-04-06T03:51:37;99407.77;;;23.09;31.72
34197;BME280;36594;45.192;5.722;2023-04-06T03:54:26;99409.92;;;23.07;31.82
34197;BME280;36594;45.192;5.722;2023-04-06T03:57:14;99400.09;;;22.97;31.89
34197;BME280;36594;45.192;5.722;2023-04-06T04:00:03;99412.06;;;23.05;31.88
34197;BME280;36594;45.192;5.722;2023-04-06T04:02:52;99414.03;;;23.07;31.88
34197;BME280;36594;45.192;5.722;2023-04-06T04:05:41;99420.34;;;23.08;31.90
34197;BME280;36594;45.192;5.722;2023-04-06T04:08:30;99425.52;;;23.07;31.93
34197;BME280;36594;45.192;5.722;2023-04-06T04:11:18;99427.73;;;23.07;31.81
34197;BME280;36594;45.192;5.722;2023-04-06T04:14:08;99428.84;;;23.09;31.79
34197;BME280;36594;45.192;5.722;2023-04-06T04:16:57;99429.09;;;23.07;31.83
34197;BME280;36594;45.192;5.722;2023-04-06T04:19:45;99437.31;;;23.07;31.81
34197;BME280;36594;45.192;5.722;2023-04-06T04:22:35;99437.84;;;23.07;31.96
34197;BME280;36594;45.192;5.722;2023-04-06T04:25:23;99432.62;;;23.05;32.22
34197;BME280;36594;45.192;5.722;2023-04-06T04:28:12;99441.05;;;23.04;32.28
34197;BME280;36594;45.192;5.722;2023-04-06T04:31:00;99442.98;;;23.03;32.39
34197;BME280;36594;45.192;5.722;2023-04-06T04:33:50;99443.14;;;22.99;32.47
34197;BME280;36594;45.192;5.722;2023-04-06T04:36:40;99448.94;;;23.00;32.55
34197;BME280;36594;45.192;5.722;2023-04-06T04:39:32;99451.67;;;23.00;32.59
34197;BME280;36594;45.192;5.722;2023-04-06T04:42:25;99449.98;;;22.99;32.61
34197;BME280;36594;45.192;5.722;2023-04-06T04:45:15;99450.52;;;22.99;32.67
34197;BME280;36594;45.192;5.722;2023-04-06T04:48:04;99449.21;;;23.01;32.67
34197;BME280;36594;45.192;5.722;2023-04-06T04:50:54;99447.03;;;23.01;32.68
34197;BME280;36594;45.192;5.722;2023-04-06T04:53:44;99463.22;;;23.02;32.67
34197;BME280;36594;45.192;5.722;2023-04-06T04:56:43;99468.17;;;23.03;32.68
34197;BME280;36594;45.192;5.722;2023-04-06T04:59:46;99466.73;;;23.00;32.72
34197;BME280;36594;45.192;5.722;2023-04-06T05:02:36;99466.95;;;22.99;32.79
34197;BME280;36594;45.192;5.722;2023-04-06T05:05:29;99471.06;;;22.99;32.80
34197;BME280;36594;45.192;5.722;2023-04-06T05:08:19;99476.61;;;23.01;32.81
34197;BME280;36594;45.192;5.722;2023-04-06T05:11:09;99474.18;;;23.02;32.79
34197;BME280;36594;45.192;5.722;2023-04-06T05:13:59;99473.87;;;23.01;32.82
34197;BME280;36594;45.192;5.722;2023-04-06T05:16:48;99482.15;;;23.04;32.80
34197;BME280;36594;45.192;5.722;2023-04-06T05:19:37;99486.85;;;23.06;32.82
34197;BME280;36594;45.192;5.722;2023-04-06T05:22:25;99491.80;;;23.06;32.78
34197;BME280;36594;45.192;5.722;2023-04-06T05:25:19;99494.33;;;23.08;32.80
34197;BME280;36594;45.192;5.722;2023-04-06T05:28:09;99489.38;;;23.07;32.79
34197;BME280;36594;45.192;5.722;2023-04-06T05:30:58;99492.39;;;23.08;32.81
34197;BME280;36594;45.192;5.722;2023-04-06T05:33:48;99496.81;;;23.09;32.80
34197;BME280;36594;45.192;5.722;2023-04-06T05:36:39;99495.76;;;23.10;32.82
34197;BME280;36594;45.192;5.722;2023-04-06T05:39:29;99497.13;;;23.10;32.83
34197;BME280;36594;45.192;5.722;2023-04-06T05:42:19;99498.25;;;23.12;32.83
34197;BME280;36594;45.192;5.722;2023-04-06T05:45:10;99497.72;;;23.12;32.87
34197;BME280;36594;45.192;5.722;2023-04-06T05:48:01;99502.95;;;23.14;32.82
34197;BME280;36594;45.192;5.722;2023-04-06T05:50:50;99502.48;;;23.17;32.84
34197;BME280;36594;45.192;5.722;2023-04-06T05:53:40;99504.38;;;23.16;32.86
34197;BME280;36594;45.192;5.722;2023-04-06T05:56:29;99503.02;;;23.16;32.88
34197;BME280;36594;45.192;5.722;2023-04-06T05:59:20;99501.39;;;23.18;32.90
34197;BME280;36594;45.192;5.722;2023-04-06T06:02:09;99501.39;;;23.18;32.90
34197;BME280;36594;45.192;5.722;2023-04-06T06:04:59;99509.99;;;23.21;32.84
34197;BME280;36594;45.192;5.722;2023-04-06T06:07:48;99515.75;;;23.22;32.86
34197;BME280;36594;45.192;5.722;2023-04-06T06:10:38;99514.97;;;23.24;32.86
34197;BME280;36594;45.192;5.722;2023-04-06T06:13:28;99513.60;;;23.24;32.85
34197;BME280;36594;45.192;5.722;2023-04-06T06:16:18;99517.78;;;23.27;32.86
34197;BME280;36594;45.192;5.722;2023-04-06T06:19:07;99510.70;;;23.28;32.87
34197;BME280;36594;45.192;5.722;2023-04-06T06:21:57;99515.94;;;23.30;32.84
34197;BME280;36594;45.192;5.722;2023-04-06T06:24:46;99510.11;;;23.26;32.93
34197;BME280;36594;45.192;5.722;2023-04-06T06:27:35;99508.74;;;23.26;32.62
34197;BME280;36594;45.192;5.722;2023-04-06T06:30:25;99512.08;;;23.28;32.54
34197;BME280;36594;45.192;5.722;2023-04-06T06:33:13;99511.11;;;23.23;32.12
34197;BME280;36594;45.192;5.722;2023-04-06T06:36:02;99508.50;;;23.16;32.34
34197;BME280;36594;45.192;5.722;2023-04-06T06:38:50;99503.27;;;23.15;32.42
34197;BME280;36594;45.192;5.722;2023-04-06T06:41:39;99508.37;;;23.11;32.47
34197;BME280;36594;45.192;5.722;2023-04-06T06:44:29;99500.46;;;23.12;32.56
34197;BME280;36594;45.192;5.722;2023-04-06T06:47:17;99504.57;;;23.12;32.54
34197;BME280;36594;45.192;5.722;2023-04-06T06:50:08;99497.78;;;23.15;32.57
34197;BME280;36594;45.192;5.722;2023-04-06T06:52:56;99500.46;;;23.12;32.67
34197;BME280;36594;45.192;5.722;2023-04-06T06:55:44;99506.53;;;23.14;32.63
34197;BME280;36594;45.192;5.722;2023-04-06T06:58:33;99503.02;;;23.16;32.65
34197;BME280;36594;45.192;5.722;2023-04-06T07:01:22;99501.45;;;23.20;32.63
34197;BME280;36594;45.192;5.722;2023-04-06T07:04:11;99502.89;;;23.23;32.66
34197;BME280;36594;45.192;5.722;2023-04-06T07:06:59;99502.48;;;23.28;32.84
34197;BME280;36594;45.192;5.722;2023-04-06T07:09:48;99504.22;;;23.44;32.65
34197;BME280;36594;45.192;5.722;2023-04-06T07:12:36;99501.06;;;23.49;32.45
34197;BME280;36594;45.192;5.722;2023-04-06T07:15:25;99495.92;;;23.53;32.40
34197;BME280;36594;45.192;5.722;2023-04-06T07:18:14;99497.41;;;23.58;32.33
34197;BME280;36594;45.192;5.722;2023-04-06T07:21:04;99501.58;;;23.60;32.31
34197;BME280;36594;45.192;5.722;2023-04-06T07:23:52;99499.98;;;23.62;32.48
34197;BME280;36594;45.192;5.722;2023-04-06T07:26:42;99499.98;;;23.62;32.48
34197;BME280;36594;45.192;5.722;2023-04-06T07:29:31;99492.04;;;23.63;32.07
34197;BME280;36594;45.192;5.722;2023-04-06T07:32:19;99490.67;;;23.63;32.02
34197;BME280;36594;45.192;5.722;2023-04-06T07:35:08;99492.29;;;23.61;32.28
34197;BME280;36594;45.192;5.722;2023-04-06T07:37:57;99489.30;;;23.63;32.47
34197;BME280;36594;45.192;5.722;2023-04-06T07:40:45;99490.39;;;23.62;32.65
34197;BME280;36594;45.192;5.722;2023-04-06T07:43:34;99487.65;;;23.62;32.88
34197;BME280;36594;45.192;5.722;2023-04-06T07:46:22;99483.75;;;23.60;32.96
34197;BME280;36594;45.192;5.722;2023-04-06T07:49:11;99484.91;;;23.62;32.96
34197;BME280;36594;45.192;5.722;2023-04-06T07:51:59;99493.66;;;23.61;33.01
34197;BME280;36594;45.192;5.722;2023-04-06T07:54:48;99491.45;;;23.61;33.04
34197;BME280;36594;45.192;5.722;2023-04-06T07:57:36;99492.56;;;23.62;33.10
34197;BME280;36594;45.192;5.722;2023-04-06T08:00:25;99494.25;;;23.63;33.16
34197;BME280;36594;45.192;5.722;2023-04-06T08:03:13;99492.34;;;23.64;33.16
34197;BME280;36594;45.192;5.722;2023-04-06T08:06:04;99492.34;;;23.64;33.23
34197;BME280;36594;45.192;5.722;2023-04-06T08:08:53;99496.20;;;23.65;33.22
34197;BME280;36594;45.192;5.722;2023-04-06T08:11:41;99490.67;;;23.63;33.29
34197;BME280;36594;45.192;5.722;2023-04-06T08:14:30;99493.41;;;23.63;33.28
34197;BME280;36594;45.192;5.722;2023-04-06T08:17:18;99489.30;;;23.63;33.29
34197;BME280;36594;45.192;5.722;2023-04-06T08:20:08;99492.04;;;23.63;33.30
34197;BME280;36594;45.192;5.722;2023-04-06T08:22:57;99492.88;;;23.63;33.31
34197;BME280;36594;45.192;5.722;2023-04-06T08:25:45;99494.53;;;23.64;33.31
34197;BME280;36594;45.192;5.722;2023-04-06T08:28:33;99494.00;;;23.65;33.30
34197;BME280;36594;45.192;5.722;2023-04-06T08:31:22;99494.31;;;23.66;33.29
34197;BME280;36594;45.192;5.722;2023-04-06T08:34:10;99497.05;;;23.66;33.25
34197;BME280;36594;45.192;5.722;2023-04-06T08:36:59;99493.47;;;23.65;33.29
34197;BME280;36594;45.192;5.722;2023-04-06T08:39:47;99488.30;;;23.66;33.31
34197;BME280;36594;45.192;5.722;2023-04-06T08:42:41;99490.78;;;23.68;33.31
34197;BME280;36594;45.192;5.722;2023-04-06T08:45:31;99497.91;;;23.69;33.37
34197;BME280;36594;45.192;5.722;2023-04-06T08:48:19;99489.09;;;23.67;33.39
34197;BME280;36594;45.192;5.722;2023-04-06T08:51:10;99493.21;;;23.67;33.44
34197;BME280;36594;45.192;5.722;2023-04-06T08:54:00;99495.73;;;23.68;33.39
34197;BME280;36594;45.192;5.722;2023-04-06T08:56:49;99495.95;;;23.67;33.37
34197;BME280;36594;45.192;5.722;2023-04-06T08:59:38;99490.25;;;23.68;33.36
34197;BME280;36594;45.192;5.722;2023-04-06T09:02:27;99493.27;;;23.69;33.33
34197;BME280;36594;45.192;5.722;2023-04-06T09:05:16;99486.95;;;23.69;33.31
34197;BME280;36594;45.192;5.722;2023-04-06T09:08:05;99493.05;;;23.71;33.29
34197;BME280;36594;45.192;5.722;2023-04-06T09:10:54;99493.86;;;23.71;33.26
34197;BME280;36594;45.192;5.722;2023-04-06T09:13:53;99487.78;;;23.69;33.21
34197;BME280;36594;45.192;5.722;2023-04-06T09:16:44;99482.08;;;23.71;33.26
34197;BME280;36594;45.192;5.722;2023-04-06T09:19:33;99489.47;;;23.70;33.29
34197;BME280;36594;45.192;5.722;2023-04-06T09:22:21;99482.89;;;23.71;33.23
34197;BME280;36594;45.192;5.722;2023-04-06T09:25:18;99472.37;;;23.66;33.30
34197;BME280;36594;45.192;5.722;2023-04-06T09:28:04;99472.37;;;23.66;33.30
34197;BME280;36594;45.192;5.722;2023-04-06T09:30:54;99471.64;;;23.70;33.21
34197;BME280;36594;45.192;5.722;2023-04-06T09:33:44;99473.85;;;23.71;33.22
34197;BME280;36594;45.192;5.722;2023-04-06T09:36:35;99472.17;;;23.70;33.20
34197;BME280;36594;45.192;5.722;2023-04-06T09:39:25;99472.75;;;23.72;33.19
34197;BME280;36594;45.192;5.722;2023-04-06T09:42:26;99469.42;;;23.70;33.18
34197;BME280;36594;45.192;5.722;2023-04-06T09:45:14;99470.33;;;23.73;33.20
34197;BME280;36594;45.192;5.722;2023-04-06T09:48:04;99467.27;;;23.72;33.16
34197;BME280;36594;45.192;5.722;2023-04-06T09:50:56;99466.16;;;23.70;33.19
34197;BME280;36594;45.192;5.722;2023-04-06T09:53:47;99463.16;;;23.72;33.16
34197;BME280;36594;45.192;5.722;2023-04-06T09:59:50;99447.02;;;23.73;33.13
34197;BME280;36594;45.192;5.722;2023-04-06T10:06:05;99451.71;;;23.75;33.13
34197;BME280;36594;45.192;5.722;2023-04-06T10:08:56;99446.11;;;23.70;33.17
34197;BME280;36594;45.192;5.722;2023-04-06T10:11:46;99451.13;;;23.73;33.15
34197;BME280;36594;45.192;5.722;2023-04-06T10:14:36;99445.92;;;23.74;33.15
34197;BME280;36594;45.192;5.722;2023-04-06T10:17:24;99445.92;;;23.74;33.12
34197;BME280;36594;45.192;5.722;2023-04-06T10:20:25;99443.23;;;23.76;33.09
34197;BME280;36594;45.192;5.722;2023-04-06T10:23:40;99439.11;;;23.76;33.04
34197;BME280;36594;45.192;5.722;2023-04-06T10:26:22;99436.37;;;23.76;33.11
34197;BME280;36594;45.192;5.722;2023-04-06T10:29:11;99437.21;;;23.77;33.11
34197;BME280;36594;45.192;5.722;2023-04-06T10:32:00;99434.16;;;23.76;33.09
34197;BME280;36594;45.192;5.722;2023-04-06T10:34:48;99434.72;;;23.75;33.08
34197;BME280;36594;45.192;5.722;2023-04-06T10:38:00;99436.73;;;23.80;33.02
34197;BME280;36594;45.192;5.722;2023-04-06T10:40:43;99431.78;;;23.79;33.05
34197;BME280;36594;45.192;5.722;2023-04-06T10:43:33;99431.25;;;23.80;33.01
34197;BME280;36594;45.192;5.722;2023-04-06T10:46:28;99433.73;;;23.81;33.03
34197;BME280;36594;45.192;5.722;2023-04-06T10:49:16;99432.11;;;23.83;32.96
34197;BME280;36594;45.192;5.722;2023-04-06T10:52:06;99423.60;;;23.82;32.99
34197;BME280;36594;45.192;5.722;2023-04-06T10:54:55;99415.95;;;23.84;32.97
34197;BME280;36594;45.192;5.722;2023-04-06T10:57:46;99419.77;;;23.83;32.98
34197;BME280;36594;45.192;5.722;2023-04-06T11:00:35;99416.21;;;23.82;32.98
34197;BME280;36594;45.192;5.722;2023-04-06T11:03:25;99410.16;;;23.83;32.96
34197;BME280;36594;45.192;5.722;2023-04-06T11:06:22;99403.87;;;23.82;32.97
34197;BME280;36594;45.192;5.722;2023-04-06T11:09:11;99394.85;;;23.84;32.92
34197;BME280;36594;45.192;5.722;2023-04-06T11:11:59;99399.19;;;23.83;32.92
34197;BME280;36594;45.192;5.722;2023-04-06T11:14:58;99390.20;;;23.85;32.88
34197;BME280;36594;45.192;5.722;2023-04-06T11:17:54;99387.73;;;23.86;32.83
34197;BME280;36594;45.192;5.722;2023-04-06T11:20:48;99386.09;;;23.85;32.82
34197;BME280;36594;45.192;5.722;2023-04-06T11:23:34;99382.78;;;23.85;32.79
34197;BME280;36594;45.192;5.722;2023-04-06T11:26:22;99377.86;;;23.85;32.73
34197;BME280;36594;45.192;5.722;2023-04-06T11:29:12;99381.41;;;23.85;32.73
34197;BME280;36594;45.192;5.722;2023-04-06T11:32:05;99375.39;;;23.86;32.73
34197;BME280;36594;45.192;5.722;2023-04-06T11:34:54;99380.66;;;23.87;32.69
34197;BME280;36594;45.192;5.722;2023-04-06T11:37:43;99377.34;;;23.88;32.65
34197;BME280;36594;45.192;5.722;2023-04-06T11:40:32;99356.77;;;23.88;32.56
34197;BME280;36594;45.192;5.722;2023-04-06T11:43:29;99373.54;;;23.89;32.64
34197;BME280;36594;45.192;5.722;2023-04-06T11:46:18;99355.98;;;23.90;32.60
34197;BME280;36594;45.192;5.722;2023-04-06T11:49:06;99360.36;;;23.88;32.61
34197;BME280;36594;45.192;5.722;2023-04-06T11:51:55;99359.52;;;23.88;32.61
34197;BME280;36594;45.192;5.722;2023-04-06T11:54:44;99353.23;;;23.90;32.63
34197;BME280;36594;45.192;5.722;2023-04-06T11:57:34;99342.04;;;23.91;32.56
34197;BME280;36594;45.192;5.722;2023-04-06T12:00:23;99345.84;;;23.90;32.52
34197;BME280;36594;45.192;5.722;2023-04-06T12:03:12;99341.16;;;23.88;32.48
34197;BME280;36594;45.192;5.722;2023-04-06T12:06:00;99336.78;;;23.90;32.50
34197;BME280;36594;45.192;5.722;2023-04-06T12:08:48;99335.41;;;23.90;32.46
34197;BME280;36594;45.192;5.722;2023-04-06T12:11:37;99340.13;;;23.92;32.46
34197;BME280;36594;45.192;5.722;2023-04-06T12:14:25;99328.91;;;23.93;32.40
34197;BME280;36594;45.192;5.722;2023-04-06T12:17:14;99324.78;;;23.93;32.40
34197;BME280;36594;45.192;5.722;2023-04-06T12:20:02;99326.20;;;23.96;32.33
34197;BME280;36594;45.192;5.722;2023-04-06T12:22:51;99320.72;;;23.96;32.29
34197;BME280;36594;45.192;5.722;2023-04-06T12:25:41;99325.91;;;23.95;32.28
34197;BME280;36594;45.192;5.722;2023-04-06T12:28:30;99323.46;;;23.96;32.27
34197;BME280;36594;45.192;5.722;2023-04-06T12:31:20;99324.25;;;23.94;32.27
34197;BME280;36594;45.192;5.722;2023-04-06T12:34:09;99317.98;;;23.96;32.17
34197;BME280;36594;45.192;5.722;2023-04-06T12:36:58;99322.93;;;23.96;32.21
34197;BME280;36594;45.192;5.722;2023-04-06T12:39:47;99320.99;;;23.97;32.20
34197;BME280;36594;45.192;5.722;2023-04-06T12:42:35;99322.67;;;23.98;32.18
34197;BME280;36594;45.192;5.722;2023-04-06T12:45:23;99325.72;;;23.99;32.15
34197;BME280;36594;45.192;5.722;2023-04-06T12:48:12;99326.25;;;23.98;32.16
34197;BME280;36594;45.192;5.722;2023-04-06T12:51:03;99315.28;;;23.98;32.12
34197;BME280;36594;45.192;5.722;2023-04-06T12:53:51;99313.91;;;23.98;32.09
34197;BME280;36594;45.192;5.722;2023-04-06T12:56:40;99312.27;;;24.00;32.06
34197;BME280;36594;45.192;5.722;2023-04-06T12:59:28;99312.77;;;23.97;32.02
34197;BME280;36594;45.192;5.722;2023-04-06T13:02:18;99308.64;;;23.97;32.06
34197;BME280;36594;45.192;5.722;2023-04-06T13:05:10;99306.20;;;23.98;32.05
34197;BME280;36594;45.192;5.722;2023-04-06T13:07:59;99307.58;;;23.98;31.99
34197;BME280;36594;45.192;5.722;2023-04-06T13:10:48;99304.53;;;23.97;31.97
34197;BME280;36594;45.192;5.722;2023-04-06T13:13:38;99297.40;;;23.96;31.94
34197;BME280;36594;45.192;5.722;2023-04-06T13:16:26;99303.77;;;23.99;31.90
34197;BME280;36594;45.192;5.722;2023-04-06T13:19:14;99294.39;;;23.97;31.88
34197;BME280;36594;45.192;5.722;2023-04-06T13:22:03;99296.07;;;23.98;31.83
34197;BME280;36594;45.192;5.722;2023-04-06T13:24:52;99287.00;;;23.98;31.84
34197;BME280;36594;45.192;5.722;2023-04-06T13:27:40;99295.54;;;23.99;31.84
34197;BME280;36594;45.192;5.722;2023-04-06T13:30:30;99284.84;;;24.00;31.82
34197;BME280;36594;45.192;5.722;2023-04-06T13:33:18;99285.94;;;23.99;31.78
34197;BME280;36594;45.192;5.722;2023-04-06T13:36:07;99289.48;;;23.99;31.75
34197;BME280;36594;45.192;5.722;2023-04-06T13:38:55;99290.05;;;23.99;31.74
34197;BME280;36594;45.192;5.722;2023-04-06T13:41:43;99284.58;;;24.01;31.69
34197;BME280;36594;45.192;5.722;2023-04-06T13:44:32;99284.30;;;24.00;31.62
34197;BME280;36594;45.192;5.722;2023-04-06T13:47:21;99276.87;;;23.98;31.70
34197;BME280;36594;45.192;5.722;2023-04-06T13:50:10;99273.28;;;23.98;31.60
34197;BME280;36594;45.192;5.722;2023-04-06T13:52:59;99274.66;;;23.98;31.67
34197;BME280;36594;45.192;5.722;2023-04-06T13:55:54;99277.98;;;24.00;31.64
34197;BME280;36594;45.192;5.722;2023-04-06T13:58:43;99274.70;;;24.00;31.63
34197;BME280;36594;45.192;5.722;2023-04-06T14:01:31;99279.66;;;24.01;31.59
34197;BME280;36594;45.192;5.722;2023-04-06T14:04:20;99277.45;;;24.00;31.56
34197;BME280;36594;45.192;5.722;2023-04-06T14:07:08;99271.42;;;24.01;31.60
34197;BME280;36594;45.192;5.722;2023-04-06T14:09:57;99274.21;;;24.03;31.46
34197;BME280;36594;45.192;5.722;2023-04-06T14:12:45;99273.91;;;24.02;31.43
34197;BME280;36594;45.192;5.722;2023-04-06T14:15:34;99269.26;;;24.03;31.47
34197;BME280;36594;45.192;5.722;2023-04-06T14:18:23;99275.81;;;24.02;31.39
34197;BME280;36594;45.192;5.722;2023-04-06T14:21:11;99272.53;;;24.02;31.43
34197;BME280;36594;45.192;5.722;2023-04-06T14:23:59;99273.38;;;24.03;31.44
34197;BME280;36594;45.192;5.722;2023-04-06T14:26:49;99268.16;;;24.04;31.43
34197;BME280;36594;45.192;5.722;2023-04-06T14:29:37;99272.00;;;24.03;31.39
34197;BME280;36594;45.192;5.722;2023-04-06T14:32:25;99268.16;;;24.04;31.39
34197;BME280;36594;45.192;5.722;2023-04-06T14:35:13;99261.25;;;24.01;31.36
34197;BME280;36594;45.192;5.722;2023-04-06T14:38:01;99266.52;;;24.03;31.38
34197;BME280;36594;45.192;5.722;2023-04-06T14:40:50;99265.94;;;24.01;31.32
34197;BME280;36594;45.192;5.722;2023-04-06T14:43:38;99270.05;;;24.01;31.39
34197;BME280;36594;45.192;5.722;2023-04-06T14:46:27;99260.19;;;24.02;31.35
34197;BME280;36594;45.192;5.722;2023-04-06T14:49:16;99262.61;;;23.99;31.37
34197;BME280;36594;45.192;5.722;2023-04-06T14:52:04;99269.48;;;23.99;31.30
34197;BME280;36594;45.192;5.722;2023-04-06T14:54:53;99259.08;;;24.01;31.29
34197;BME280;36594;45.192;5.722;2023-04-06T14:57:41;99269.75;;;24.00;31.23
34197;BME280;36594;45.192;5.722;2023-04-06T15:00:29;99269.75;;;24.00;31.28
34197;BME280;36594;45.192;5.722;2023-04-06T15:03:18;99269.75;;;24.00;31.30
34197;BME280;36594;45.192;5.722;2023-04-06T15:06:11;99273.06;;;24.02;31.28